METAR v bližini

 

LJLJ - Ljubljana/Brnik, Slovenia
Oddaljenost od postaje: W 41km
Podatki zajeti: 14/10/2019 09:30
Jasno
Jasno
 Veter iz smeri spremenljiv
Veter: spremenljiv 2 km/h
Temperatura: 11°C
Rosišče: 10°C
Vlažnost: 94%
Tlak: 1021 hPa
Stanje: Jasno
Vidljivost: večja od 10 km
2019/10/14 07:30 LJLJ 140730Z VRB01KT CAVOK 11/10 Q1021 NOSIG
LJMB - Maribor, Slovenia
Oddaljenost od postaje: NE 63km
Podatki zajeti: 14/10/2019 09:30
Delno oblačno
Delno oblačno
 Veter iz smeri spremenljiv
Veter: spremenljiv 4 km/h
Temperatura: 13°C
Rosišče: 12°C
Vlažnost: 94%
Tlak: 1020 hPa
Oblačnost: Delno oblačno
Vidljivost: 8 km
2019/10/14 07:30 LJMB 140730Z VRB02KT 8000 NSC 13/12 Q1020
 
LJPZ - Portoroz, Slovenia
Oddaljenost od postaje: SW 130km
Podatki zajeti: 14/10/2019 09:30
Pretežno oblačno
Pretežno oblačno
 Veter iz smeri SE
Veter: SE 7 km/h
Temperatura: 16°C
Rosišče: 14°C
Vlažnost: 88%
Tlak: 1023 hPa
Oblačnost: Pretežno oblačno
Vidljivost: 8 km
Podrobnosti o oblakih: Rahlo oblačno 1097 m
Pretežno oblačno 6096 m
2019/10/14 07:30 LJPZ 140730Z 13004KT 8000 FEW036 BKN200 16/14 Q1023
LJCE - Cerklje, Slovenia
Oddaljenost od postaje: ESE 49km
Podatki zajeti: 14/10/2019 09:30
Jasno
Jasno
 Veter iz smeri SW
Veter: SW 7 km/h
Temperatura: 16°C
Rosišče: 12°C
Vlažnost: 77%
Tlak: 1021 hPa
Stanje: Jasno
Vidljivost: večja od 10 km
2019/10/14 07:30 LJCE 140730Z 22004KT CAVOK 16/12 Q1021 RMK BLU
 
LDZA - Zagreb/Pleso, Croatia
Oddaljenost od postaje: ESE 96km
Podatki zajeti: 14/10/2019 09:30
Jasno
Jasno
 Veter iz smeri spremenljiv
Veter: spremenljiv 4 km/h
Temperatura: 14°C
Rosišče: 13°C
Vlažnost: 94%
Tlak: 1021 hPa
Stanje: Jasno
Vidljivost: večja od 10 km
2019/10/14 07:30 LDZA 140730Z VRB02KT CAVOK 14/13 Q1021 NOSIG
LDRI - Rijeka/Omisalj, Croatia
Oddaljenost od postaje: SSW 109km
Podatki zajeti: 14/10/2019 09:30
Meglica, Patches of, Megla, Delno oblačno
Meglica, Patches of, Megla, Delno oblačno
 Veter iz smeri spremenljiv
Veter: spremenljiv 2 km/h
Temperatura: 17°C
Rosišče: 16°C
Vlažnost: 94%
Tlak: 1022 hPa
Stanje: Meglica, Patches of, Megla
Oblačnost: Delno oblačno
Vidljivost: 3 km
Podrobnosti o oblakih: Rahlo oblačno 91 m
Delno oblačno 914 m
2019/10/14 07:30 LDRI 140730Z VRB01KT 3000 0700SE BR BCFG FEW003 SCT030 17/16 Q1022
 
LDPL - Pula, Croatia
Oddaljenost od postaje: SSW 164km
Podatki zajeti: 14/10/2019 09:30
Jasno
Jasno
 Veter iz smeri spremenljiv
Veter: spremenljiv 2 km/h
Temperatura: 17°C
Rosišče: 14°C
Vlažnost: 83%
Tlak: 1023 hPa
Stanje: Jasno
Vidljivost: večja od 10 km
2019/10/14 07:30 LDPL 140730Z VRB01KT CAVOK 17/14 Q1023 NOSIG
LOWK - Klagenfurt(Civ/M, Austria
Oddaljenost od postaje: NW 76km
Podatki zajeti: 14/10/2019 09:50
Delno oblačno
Delno oblačno
 Veter iz smeri spremenljiv
Veter: spremenljiv 4 km/h
Temperatura: 12°C
Rosišče: 10°C
Vlažnost: 88%
Tlak: 1022 hPa
Oblačnost: Delno oblačno
Vidljivost: 10 km
Podrobnosti o oblakih: Rahlo oblačno 61 m
Delno oblačno 7620 m
2019/10/14 07:50 LOWK 140750Z VRB02KT 9999 FEW002 SCT250 12/10 Q1022 NOSIG
 
LOWG - Graz (mil/Civ), Austria
Oddaljenost od postaje: NNE 100km
Podatki zajeti: 14/10/2019 09:50
Megla v pasovih, Rahlo oblačno
Megla v pasovih, Rahlo oblačno
 Veter iz smeri spremenljiv
Veter: spremenljiv 4 km/h
Temperatura: 11°C
Rosišče: 10°C
Vlažnost: 94%
Tlak: 1019 hPa
Stanje: Patches of Fog
Oblačnost: Rahlo oblačno
Vidljivost: 3 km
Podrobnosti o oblakih: Rahlo oblačno 9144 m
2019/10/14 07:50 LOWG 140750Z VRB02KT 3000 BCFG FEW300 11/10 Q1019 BECMG TL0800 9999 NSW
LOAN - Wr.neustadt East, Austria
Oddaljenost od postaje: NNE 212km
Podatki zajeti: 14/10/2019 09:00
Megla, Oblačno
Megla, Oblačno
 Veter iz smeri spremenljiv
Veter: spremenljiv 4 km/h
Stanje: Megla
Oblačnost: Oblačno
Vidljivost: 0 km
Podrobnosti o oblakih: Oblačno 30 m
2019/10/14 07:00 LOAN 140700Z VRB02KT 0200 FG VV001
 
LIPQ - Ronchi Legionari, Italy
Oddaljenost od postaje: SW 35km
Podatki zajeti: 14/10/2019 09:50
Delno oblačno
Delno oblačno
 Veter iz smeri spremenljiv
Veter: spremenljiv 4 km/h
Temperatura: 15°C
Rosišče: 14°C
Vlažnost: 94%
Tlak: 1023 hPa
Oblačnost: Delno oblačno
Vidljivost: 6 km
2019/10/14 07:50 LIPQ 140750Z VRB02KT 6000 NSC 15/14 Q1023
LIVT - Trieste, Italy
Oddaljenost od postaje: WSW 109km
Podatki zajeti: 14/10/2019 08:55
Delno oblačno
Delno oblačno
 Veter iz smeri spremenljiv
Veter: spremenljiv 0 km/h
Temperatura: 16°C
Rosišče: 15°C
Vlažnost: 94%
Tlak: 1022 hPa
Oblačnost: Delno oblačno
Vidljivost: 6 km
2019/10/14 06:55 LIVT 140655Z /////KT 6000 NSC 16/15 Q1022 RMK BKN SCT080 SCT200 QUK 0 QUL 0 VIS MAR 6 KM VIS MIN 6000
 
LIVO - Tarvisio, Italy
Oddaljenost od postaje: NNW 49km
Podatki zajeti: 14/10/2019 08:55
Jasno
Jasno
 Veter iz smeri W
Veter: W 9 km/h
Temperatura: 10°C
Občutek mraza zaradi vetra: 9°C
Rosišče: 9°C
Vlažnost: 94%
Tlak: 1022 hPa
Stanje: Jasno
Vidljivost: večja od 10 km
2019/10/14 06:55 LIVO 140655Z 28005KT CAVOK 10/09 Q1022 RMK SCT SCT080 VIS MIN 9999
LIPZ - Venezia/Tessera, Italy
Oddaljenost od postaje: WSW 217km
Podatki zajeti: 14/10/2019 09:50
Megla, Pretežno oblačno
Megla, Pretežno oblačno
 Veter iz smeri N
Veter: N 6 km/h
Temperatura: 14°C
Rosišče: 14°C
Vlažnost: 100%
Tlak: 1022 hPa
Stanje: Megla
Oblačnost: Pretežno oblačno
Vidljivost: 0 km
Podrobnosti o oblakih: Pretežno oblačno 30 m
2019/10/14 07:50 LIPZ 140750Z 36003KT 320V040 0100 R04R/0350V0550N FG BKN001 14/14 Q1022 BECMG 0400 FG
 
LHSM - Balaton, Hungary
Oddaljenost od postaje: ENE 177km
Podatki zajeti: 14/10/2019 09:15
Meglica, Jasno
Meglica, Jasno
 Veter iz smeri calm
Veter: Calm
Temperatura: 11°C
Rosišče: 11°C
Vlažnost: 100%
Tlak: 1021 hPa
Stanje: Meglica
Oblačnost: Jasno
Vidljivost: 2 km
2019/10/14 07:15 LHSM 140715Z AUTO 00000KT 1500 BR NCD 11/11 Q1021 BECMG 3000